.
WxDataArchive / Data Records for 2009-09-22
2009-09-21 September 2009 2009-09-23

Data Records for Tuesday, 22 September 2009

Time	Temp	Chill	HIndex	Humid	Dewpt	 Wind 	HiWind	WindDir	Rain 	Barom 
-----	----	-----	------	-----	-----	------	------	-------	-----	----- 
00:00	65.6	65.6	65.6	95	64.1	0	0	---	0.00	30.039 
00:05	65.6	65.6	65.6	95	64.1	0	0	---	0.00	30.039 
00:10	65.6	65.6	65.6	95	64.1	0	0	---	0.00	30.039 
00:15	65.6	65.6	65.6	95	64.1	0	0	---	0.00	30.033 
00:20	65.6	65.6	65.6	96	64.4	0	0	---	0.00	30.033 
00:25	65.5	65.5	65.5	96	64.3	0	0	---	0.00	30.033 
00:30	65.5	65.5	65.5	96	64.3	0	0	---	0.00	30.037 
00:35	65.3	65.3	65.3	96	64.1	0	0	---	0.00	30.037 
00:40	65.2	65.2	65.2	96	64.0	0	0	---	0.00	30.037 
00:45	65.2	65.2	65.2	96	64.0	0	0	---	0.00	30.038 
00:50	65.2	65.2	65.2	96	64.0	0	0	---	0.00	30.038 
00:55	65.2	65.2	65.2	96	64.0	0	0	---	0.00	30.038 
01:00	65.0	65.0	65.0	96	63.8	0	0	---	0.00	30.035 
01:05	64.8	64.8	64.8	96	63.6	0	0	---	0.00	30.035 
01:10	64.7	64.7	64.7	96	63.5	0	0	---	0.00	30.035 
01:15	64.7	64.7	64.7	96	63.5	0	0	---	0.00	30.039 
01:20	64.7	64.7	64.7	96	63.5	0	0	---	0.00	30.039 
01:25	64.5	64.5	64.5	96	63.3	0	0	---	0.00	30.039 
01:30	64.5	64.5	64.5	96	63.3	0	0	---	0.00	30.038 
01:35	64.5	64.5	64.5	96	63.3	0	0	---	0.00	30.038 
01:40	64.5	64.5	64.5	96	63.3	0	0	---	0.00	30.038 
01:45	64.5	64.5	64.5	96	63.3	0	0	---	0.00	30.041 
01:50	64.3	64.3	64.3	96	63.1	0	0	---	0.00	30.041 
01:55	64.3	64.3	64.3	96	63.1	0	0	---	0.00	30.041 
02:00	64.2	64.2	64.2	96	63.0	0	0	---	0.00	30.043 
02:05	64.2	64.2	64.2	96	63.0	0	0	---	0.00	30.043 
02:10	64.0	64.0	64.0	96	62.8	0	0	---	0.00	30.043 
02:15	64.0	64.0	64.0	96	62.8	0	0	---	0.00	30.037 
02:20	63.9	63.9	63.9	96	62.7	0	0	---	0.00	30.037 
02:25	63.9	63.9	63.9	96	62.7	0	0	---	0.00	30.037 
02:30	63.7	63.7	63.7	96	62.5	0	0	---	0.00	30.038 
02:35	63.7	63.7	63.7	96	62.5	0	0	---	0.00	30.038 
02:40	63.7	63.7	63.7	96	62.5	0	0	---	0.00	30.038 
02:45	63.7	63.7	63.7	96	62.5	0	0	---	0.00	30.038 
02:50	63.7	63.7	63.7	96	62.5	0	0	---	0.00	30.038 
02:55	63.7	63.7	63.7	96	62.5	0	0	---	0.00	30.038 
03:00	63.9	63.9	63.9	96	62.7	0	0	---	0.00	30.040 
03:05	64.0	64.0	64.0	96	62.8	0	0	---	0.00	30.040 
03:10	64.3	64.3	64.3	96	63.1	0	0	---	0.00	30.040 
03:15	64.5	64.5	64.5	96	63.3	0	0	---	0.00	30.042 
03:20	64.8	64.8	64.8	97	63.9	0	0	---	0.00	30.042 
03:25	65.3	65.3	65.3	97	64.4	0	0	---	0.00	30.042 
03:30	65.8	65.8	65.8	97	64.9	0	0	---	0.00	30.045 
03:35	66.3	66.3	66.3	97	65.4	0	1	180	0.00	30.045 
03:40	66.4	66.4	66.4	97	65.5	0	1	22	0.00	30.045 
03:45	66.6	66.6	66.6	97	65.7	0	3	45	0.00	30.044 
03:50	66.8	66.8	66.8	97	65.9	0	1	45	0.00	30.044 
03:55	67.1	67.1	67.1	97	66.2	0	1	45	0.00	30.044 
04:00	67.3	67.3	67.3	97	66.4	0	1	45	0.00	30.045 
04:05	67.3	67.3	67.3	97	66.4	0	1	45	0.00	30.045 
04:10	67.4	67.4	67.4	97	66.5	0	1	45	0.00	30.045 
04:15	67.6	67.6	67.6	97	66.7	0	0	---	0.00	30.044 
04:20	67.6	67.6	67.6	97	66.7	0	1	45	0.00	30.044 
04:25	67.6	67.6	67.6	97	66.7	0	0	---	0.00	30.044 
04:30	67.8	67.8	67.8	97	66.9	0	0	---	0.00	30.041 
04:35	67.8	67.8	67.8	97	66.9	0	0	---	0.00	30.041 
04:40	67.8	67.8	67.8	97	66.9	0	0	---	0.00	30.041 
04:45	67.8	67.8	67.8	97	66.9	0	0	---	0.00	30.043 
04:50	67.9	67.9	67.9	97	67.0	0	0	---	0.00	30.043 
04:55	67.9	67.9	67.9	97	67.0	0	0	---	0.00	30.043 
05:00	67.9	67.9	67.9	97	67.0	0	0	---	0.00	30.046 
05:05	67.9	67.9	67.9	97	67.0	0	0	---	0.00	30.046 
05:10	67.9	67.9	67.9	97	67.0	0	0	---	0.00	30.046 
05:15	67.9	67.9	67.9	97	67.0	0	0	---	0.00	30.043 
05:20	67.9	67.9	67.9	97	67.0	0	0	---	0.00	30.043 
05:25	67.9	67.9	67.9	97	67.0	0	0	---	0.00	30.043 
05:30	67.9	67.9	67.9	97	67.0	0	0	---	0.00	30.046 
05:35	67.9	67.9	67.9	97	67.0	0	0	---	0.00	30.046 
05:40	67.9	67.9	67.9	97	67.0	0	0	---	0.00	30.046 
05:45	67.9	67.9	67.9	97	67.0	0	0	---	0.00	30.046 
05:50	68.1	68.1	68.1	97	67.2	0	1	45	0.00	30.046 
05:55	68.1	68.1	68.1	97	67.2	0	1	45	0.00	30.046 
06:00	68.1	68.1	68.1	97	67.2	0	0	---	0.00	30.046 
06:05	68.1	68.1	68.1	97	67.2	0	0	---	0.00	30.046 
06:10	68.1	68.1	68.1	97	67.2	0	0	---	0.00	30.046 
06:15	68.1	68.1	68.1	97	67.2	0	0	---	0.00	30.047 
06:20	68.1	68.1	68.1	97	67.2	0	0	---	0.00	30.047 
06:25	68.1	68.1	68.1	97	67.2	0	0	---	0.00	30.047 
06:30	67.9	67.9	67.9	97	67.0	0	0	---	0.00	30.047 
06:35	67.9	67.9	67.9	97	67.0	0	0	---	0.00	30.047 
06:40	67.9	67.9	67.9	97	67.0	0	0	---	0.00	30.047 
06:45	67.9	67.9	67.9	97	67.0	0	0	---	0.00	30.053 
06:50	67.9	67.9	67.9	97	67.0	0	0	---	0.00	30.053 
06:55	67.9	67.9	67.9	97	67.0	0	0	---	0.00	30.053 
07:00	67.9	67.9	67.9	97	67.0	0	0	---	0.00	30.050 
07:05	67.9	67.9	67.9	97	67.0	0	0	---	0.00	30.050 
07:10	67.9	67.9	67.9	97	67.0	0	1	45	0.00	30.050 
07:15	67.9	67.9	67.9	97	67.0	0	0	---	0.00	30.053 
07:20	67.9	67.9	67.9	97	67.0	0	1	45	0.00	30.053 
07:25	67.8	67.8	67.8	97	66.9	0	1	45	0.00	30.053 
07:30	67.8	67.8	67.8	97	66.9	0	1	45	0.00	30.050 
07:35	67.8	67.8	67.8	97	66.9	0	2	45	0.00	30.050 
07:40	67.6	67.6	67.6	97	66.7	0	2	45	0.00	30.050 
07:45	67.6	67.6	67.6	97	66.7	0	0	---	0.00	30.051 
07:50	67.6	67.6	67.6	97	66.7	0	1	45	0.00	30.051 
07:55	67.6	67.6	67.6	97	66.7	0	1	45	0.00	30.051 
08:00	67.6	67.6	67.6	97	66.7	0	0	---	0.00	30.052 
08:05	67.8	67.8	67.8	97	66.9	0	0	---	0.00	30.052 
08:10	67.8	67.8	67.8	97	66.9	0	0	---	0.00	30.052 
08:15	67.8	67.8	67.8	97	66.9	0	0	---	0.00	30.057 
08:20	67.9	67.9	67.9	97	67.0	0	1	45	0.00	30.057 
08:25	67.9	67.9	67.9	97	67.0	0	0	---	0.00	30.057 
08:30	67.9	67.9	67.9	97	67.0	0	2	45	0.00	30.064 
08:35	67.9	67.9	67.9	97	67.0	0	0	---	0.00	30.064 
08:40	68.1	68.1	68.1	97	67.2	0	0	---	0.00	30.064 
08:45	68.1	68.1	68.1	97	67.2	0	1	45	0.00	30.066 
08:50	68.1	68.1	68.1	97	67.2	0	1	45	0.00	30.066 
08:55	68.1	68.1	68.1	97	67.2	0	1	45	0.00	30.066 
09:00	68.3	68.3	68.3	97	67.4	0	0	---	0.00	30.066 
09:05	68.3	68.3	68.3	97	67.4	0	1	45	0.00	30.066 
09:10	68.3	68.3	68.3	97	67.4	0	1	45	0.00	30.066 
09:15	68.3	68.3	68.3	97	67.4	0	1	45	0.00	30.069 
09:20	68.4	68.4	68.4	97	67.5	0	1	45	0.00	30.069 
09:25	68.4	68.4	68.4	97	67.5	0	1	45	0.00	30.069 
09:30	68.6	68.6	68.6	97	67.7	0	1	45	0.00	30.065 
09:35	68.8	68.8	68.8	97	67.9	0	1	45	0.00	30.065 
09:40	68.9	68.9	68.9	97	68.0	0	1	45	0.00	30.065 
09:45	69.1	69.1	69.1	97	68.2	0	1	45	0.00	30.066 
09:50	69.1	69.1	69.1	97	68.2	0	1	45	0.00	30.066 
09:55	69.3	69.3	69.3	97	68.4	0	2	45	0.00	30.066 
10:00	69.4	69.4	69.4	97	68.5	0	1	45	0.00	30.061 
10:05	69.6	69.6	69.6	97	68.7	0	1	45	0.00	30.061 
10:10	69.8	69.8	69.8	97	68.9	0	3	45	0.00	30.061 
10:15	69.9	69.9	69.9	96	68.7	0	3	45	0.00	30.064 
10:20	70.1	70.1	70.1	96	68.9	0	1	45	0.00	30.064 
10:25	70.3	70.3	70.3	96	69.1	0	1	45	0.00	30.064 
10:30	70.4	70.4	70.4	96	69.2	0	3	112	0.00	30.065 
10:35	70.4	70.4	70.4	96	69.2	0	2	112	0.00	30.065 
10:40	70.8	70.8	70.8	96	69.6	1	3	112	0.00	30.065 
10:45	70.9	70.9	70.9	96	69.7	1	4	135	0.00	30.062 
10:50	71.3	71.3	71.3	95	69.8	1	4	112	0.00	30.062 
10:55	71.5	71.5	71.5	95	70.0	1	3	112	0.00	30.062 
11:00	71.6	71.6	71.6	94	69.8	1	2	68	0.00	30.063 
11:05	72.0	72.0	72.0	94	70.2	0	3	90	0.00	30.063 
11:10	72.1	72.1	72.1	93	70.0	0	1	90	0.00	30.063 
11:15	72.1	72.1	72.1	92	69.6	1	4	90	0.00	30.064 
11:20	72.3	72.3	72.3	92	69.8	1	4	135	0.00	30.064 
11:25	72.5	72.5	72.5	91	69.7	1	3	135	0.00	30.064 
11:30	72.8	72.8	72.8	90	69.7	1	3	112	0.00	30.066 
11:35	73.0	73.0	73.0	89	69.6	1	3	112	0.00	30.066 
11:40	73.2	73.2	73.2	89	69.8	0	2	112	0.00	30.066 
11:45	73.7	73.7	73.7	88	69.9	1	4	90	0.00	30.061 
11:50	74.6	74.6	74.6	87	70.5	1	3	112	0.00	30.061 
11:55	74.9	74.9	74.9	85	70.1	1	2	270	0.00	30.061 
12:00	75.1	75.1	75.3	83	69.6	2	5	112	0.00	30.062 
12:05	75.3	75.3	75.5	84	70.1	1	5	90	0.00	30.062 
12:10	76.0	76.0	76.9	81	69.7	1	3	90	0.00	30.062 
12:15	76.5	76.5	77.8	79	69.5	2	6	90	0.00	30.060 
12:20	76.8	76.8	78.3	78	69.4	1	5	112	0.00	30.060 
12:25	76.8	76.8	78.3	78	69.4	1	5	135	0.00	30.060 
12:30	77.0	77.0	78.6	78	69.6	1	2	90	0.00	30.057 
12:35	77.4	77.4	79.3	77	69.6	1	3	90	0.00	30.057 
12:40	77.7	77.7	79.7	74	68.7	2	4	90	0.00	30.057 
12:45	78.1	78.1	80.3	74	69.1	1	5	112	0.00	30.060 
12:50	78.6	78.6	81.1	74	69.6	1	5	45	0.00	30.060 
12:55	78.6	78.6	81.0	73	69.2	1	4	112	0.00	30.060 
13:00	78.6	78.6	81.0	72	68.8	1	5	90	0.00	30.053 
13:05	78.6	78.6	81.0	73	69.2	0	2	90	0.00	30.053 
13:10	78.8	78.8	81.2	71	68.6	2	5	90	0.00	30.053 
13:15	79.2	79.2	81.6	69	68.1	2	5	90	0.00	30.053 
13:20	79.8	79.8	82.4	68	68.3	1	4	90	0.00	30.053 
13:25	79.9	79.9	82.9	71	69.6	1	5	248	0.00	30.053 
13:30	79.9	79.9	82.5	67	67.9	2	4	248	0.00	30.056 
13:35	79.9	79.9	82.5	67	67.9	1	6	112	0.00	30.056 
13:40	79.4	79.4	81.8	68	67.9	1	5	90	0.00	30.056 
13:45	79.0	79.0	81.3	69	67.9	0	2	90	0.00	30.053 
13:50	78.8	78.8	81.2	71	68.6	0	3	90	0.00	30.053 
13:55	79.2	79.2	81.7	70	68.5	1	4	270	0.00	30.053 
14:00	79.8	79.8	82.5	69	68.7	2	5	270	0.00	30.045 
14:05	79.9	79.9	82.8	70	69.2	1	3	90	0.00	30.045 
14:10	79.8	79.8	82.1	65	67.0	1	3	68	0.00	30.045 
14:15	79.6	79.6	81.8	65	66.8	1	5	292	0.00	30.045 
14:20	79.9	79.9	82.3	66	67.5	2	3	270	0.00	30.045 
14:25	80.3	80.3	82.9	66	67.9	2	6	270	0.00	30.045 
14:30	80.9	80.9	83.5	64	67.6	1	6	270	0.00	30.042 
14:35	81.4	81.4	84.1	63	67.6	1	6	292	0.00	30.042 
14:40	81.8	81.8	84.5	62	67.5	2	5	248	0.00	30.042 
14:45	81.8	81.8	84.1	60	66.5	1	5	270	0.00	30.032 
14:50	81.6	81.6	84.2	62	67.3	1	5	248	0.00	30.032 
14:55	81.8	81.8	84.3	61	67.0	1	4	270	0.00	30.032 
15:00	82.0	82.0	84.4	60	66.7	1	5	90	0.00	30.027 
15:05	81.8	81.8	84.0	59	66.0	1	7	292	0.00	30.027 
15:10	81.8	81.8	84.3	61	67.0	1	4	292	0.00	30.027 
15:15	82.0	82.0	84.2	59	66.2	1	3	248	0.00	30.024 
15:20	82.0	82.0	84.2	59	66.2	1	4	248	0.00	30.024 
15:25	82.0	82.0	84.4	60	66.7	1	2	292	0.00	30.024 
15:30	82.2	82.2	84.7	60	66.9	1	5	90	0.00	30.020 
15:35	82.2	82.2	84.3	58	65.9	1	4	225	0.00	30.020 
15:40	82.0	82.0	84.2	59	66.2	1	3	225	0.00	30.020 
15:45	81.6	81.6	83.5	58	65.4	2	5	112	0.00	30.012 
15:50	82.0	82.0	84.8	62	67.7	1	5	112	0.00	30.012 
15:55	82.2	82.2	84.3	58	65.9	1	3	112	0.00	30.012 
16:00	82.2	82.2	84.3	58	65.9	1	4	45	0.00	30.010 
16:05	82.0	82.0	84.2	59	66.2	0	2	248	0.00	30.010 
16:10	82.4	82.4	84.8	59	66.6	1	3	90	0.00	30.010 
16:15	82.8	82.8	85.2	58	66.5	1	4	270	0.00	30.008 
16:20	82.8	82.8	85.0	57	66.0	1	4	248	0.00	30.008 
16:25	82.6	82.6	84.9	58	66.3	1	3	68	0.00	30.008 
16:30	82.2	82.2	84.5	59	66.4	2	4	270	0.00	30.005 
16:35	82.2	82.2	84.7	60	66.9	0	4	270	0.00	30.005 
16:40	81.8	81.8	83.8	58	65.6	1	3	248	0.00	30.005 
16:45	81.4	81.4	83.6	60	66.2	0	2	270	0.00	30.009 
16:50	81.2	81.2	83.3	60	66.0	0	2	270	0.00	30.009 
16:55	81.1	81.1	83.2	60	65.9	0	2	270	0.00	30.009 
17:00	81.2	81.2	83.5	61	66.4	0	2	248	0.00	30.009 
17:05	81.2	81.2	83.3	60	66.0	0	2	270	0.00	30.009 
17:10	81.1	81.1	83.2	60	65.9	1	3	248	0.00	30.009 
17:15	81.1	81.1	83.5	62	66.8	0	2	270	0.00	30.009 
17:20	80.9	80.9	83.1	61	66.2	0	2	315	0.00	30.009 
17:25	80.9	80.9	83.1	61	66.2	0	2	292	0.00	30.009 
17:30	81.1	81.1	83.3	61	66.4	1	3	315	0.00	30.003 
17:35	81.2	81.2	83.3	60	66.0	1	4	315	0.00	30.003 
17:40	81.1	81.1	83.3	61	66.4	0	2	112	0.00	30.003 
17:45	80.9	80.9	83.2	62	66.6	0	4	112	0.00	30.004 
17:50	80.9	80.9	82.9	60	65.7	1	4	90	0.00	30.004 
17:55	80.9	80.9	83.1	61	66.2	0	2	90	0.00	30.004 
18:00	80.9	80.9	83.1	61	66.2	1	3	90	0.00	30.000 
18:05	80.9	80.9	83.1	61	66.2	1	4	90	0.00	30.000 
18:10	80.9	80.9	83.2	62	66.6	0	2	90	0.00	30.000 
18:15	80.9	80.9	83.2	62	66.6	1	4	68	0.00	30.005 
18:20	80.7	80.7	82.9	62	66.4	1	4	68	0.00	30.005 
18:25	80.5	80.5	82.7	62	66.3	0	2	135	0.00	30.005 
18:30	80.3	80.3	82.4	62	66.1	0	3	112	0.00	30.003 
18:35	80.1	80.1	82.3	63	66.3	0	2	112	0.00	30.003 
18:40	79.8	79.8	81.9	63	66.1	0	3	112	0.00	30.003 
18:45	79.6	79.6	81.7	64	66.3	1	4	112	0.00	30.007 
18:50	79.6	79.6	81.7	64	66.3	0	1	90	0.00	30.007 
18:55	79.2	79.2	81.2	64	65.9	0	1	90	0.00	30.007 
19:00	79.2	79.2	81.3	65	66.4	0	2	90	0.00	30.005 
19:05	79.0	79.0	81.0	65	66.2	0	2	112	0.00	30.005 
19:10	78.8	78.8	80.8	65	66.0	0	2	112	0.00	30.005 
19:15	78.8	78.8	80.8	65	66.0	0	1	112	0.00	29.998 
19:20	78.6	78.6	80.6	66	66.3	0	1	112	0.00	29.998 
19:25	78.3	78.3	80.3	67	66.4	0	0	---	0.00	29.998 
19:30	78.1	78.1	80.0	67	66.2	0	2	112	0.00	30.000 
19:35	77.7	77.7	79.6	68	66.3	0	1	112	0.00	30.000 
19:40	77.6	77.6	79.5	68	66.2	0	1	112	0.00	30.000 
19:45	77.4	77.4	79.2	68	66.0	0	2	112	0.00	30.006 
19:50	77.2	77.2	79.0	69	66.2	0	2	112	0.00	30.006 
19:55	77.0	77.0	78.8	69	66.0	0	1	112	0.00	30.006 
20:00	76.8	76.8	78.5	70	66.3	0	0	---	0.00	30.012 
20:05	76.5	76.5	78.2	71	66.4	0	0	---	0.00	30.012 
20:10	76.3	76.3	77.9	72	66.6	0	0	---	0.00	30.012 
20:15	76.0	76.0	77.5	73	66.7	0	0	---	0.00	30.013 
20:20	75.6	75.6	77.0	73	66.3	0	0	---	0.00	30.013 
20:25	75.3	75.3	76.6	74	66.4	0	0	---	0.00	30.013 
20:30	75.1	75.1	76.3	75	66.6	0	0	---	0.00	30.022 
20:35	74.9	74.9	74.9	76	66.8	0	0	---	0.00	30.022 
20:40	74.7	74.7	74.7	76	66.6	0	0	---	0.00	30.022 
20:45	74.7	74.7	74.7	76	66.6	0	0	---	0.00	30.029 
20:50	74.7	74.7	74.7	76	66.6	0	0	---	0.00	30.029 
20:55	74.7	74.7	74.7	75	66.2	0	0	---	0.00	30.029 
21:00	74.9	74.9	74.9	76	66.8	0	1	112	0.00	30.031 
21:05	74.9	74.9	74.9	76	66.8	0	1	112	0.00	30.031 
21:10	75.1	75.1	76.2	76	67.0	0	0	---	0.00	30.031 
21:15	75.1	75.1	76.2	76	67.0	0	0	---	0.00	30.032 
21:20	75.1	75.1	76.2	76	67.0	0	3	135	0.00	30.032 
21:25	75.1	75.1	75.7	80	68.5	2	5	270	0.03	30.032 
21:30	74.2	74.2	74.2	84	69.0	0	2	270	0.18	30.045 
21:35	73.3	73.3	73.3	87	69.2	0	1	270	0.00	30.045 
21:40	72.7	72.7	72.7	88	68.9	0	1	270	0.00	30.045 
21:45	72.3	72.3	72.3	90	69.2	0	1	270	0.00	30.057 
21:50	72.0	72.0	72.0	91	69.2	1	4	270	0.07	30.057 
21:55	71.6	71.6	71.6	92	69.1	0	2	270	0.03	30.057 
22:00	71.1	71.1	71.1	92	68.7	1	4	292	0.01	30.046 
22:05	70.6	70.6	70.6	92	68.2	0	3	270	0.00	30.046 
22:10	70.4	70.4	70.4	92	68.0	0	1	22	0.00	30.046 
22:15	70.3	70.3	70.3	92	67.9	0	1	22	0.00	30.045 
22:20	70.1	70.1	70.1	92	67.7	0	2	22	0.00	30.045 
22:25	70.1	70.1	70.1	93	68.0	0	2	22	0.00	30.045 
22:30	70.1	70.1	70.1	93	68.0	0	0	---	0.00	30.036 
22:35	70.1	70.1	70.1	93	68.0	0	0	---	0.00	30.036 
22:40	70.1	70.1	70.1	93	68.0	0	1	22	0.00	30.036 
22:45	69.9	69.9	69.9	94	68.1	0	0	---	0.00	30.030 
22:50	69.9	69.9	69.9	94	68.1	0	0	---	0.00	30.030 
22:55	69.8	69.8	69.8	94	68.0	0	0	---	0.00	30.030 
23:00	69.8	69.8	69.8	94	68.0	0	2	22	0.00	30.030 
23:05	69.6	69.6	69.6	94	67.8	0	1	22	0.00	30.030 
23:10	69.6	69.6	69.6	94	67.8	0	1	22	0.00	30.030 
23:15	69.4	69.4	69.4	94	67.6	0	0	---	0.00	30.028 
23:20	69.4	69.4	69.4	94	67.6	0	1	22	0.00	30.028 
23:25	69.3	69.3	69.3	94	67.5	0	1	22	0.00	30.028 
23:30	69.1	69.1	69.1	95	67.6	0	1	22	0.00	30.029 
23:35	69.1	69.1	69.1	95	67.6	0	1	22	0.00	30.029 
23:40	69.1	69.1	69.1	95	67.6	0	1	22	0.00	30.029 
23:45	69.1	69.1	69.1	95	67.6	0	0	---	0.00	30.029 
23:50	69.1	69.1	69.1	95	67.6	0	1	22	0.00	30.029 
23:55	68.9	68.9	68.9	95	67.4	0	0	---	0.00	30.029 

CoCoRaHS
IN-AL-39
A2 Web Hosting
Creative Commons License
GoDaddy
search engine by freefind advanced

loaded 2018-11-16 23:25:36 • last modified 2010-11-18 10:43:29
Privacy PolicyDisclaimer
• wx.awcolley.com is powered by PmWiki v.2002016 •
• all content (unless otherwise noted) © 2018 A W Colley